Yue Zhu Hai 4038 — 4038 — position and weather

sailwx.info

Track history (hours):
 
Tides and Currents Weather Stations Pressure Air Temp Water Temp Dewpoint Dewpoint Depression Visibility Wind Speed Wind Dir Waves Ship Positions

Yue Zhu Hai 4038

Last reported at 2014-Jul-25 15:18 UTC. Time now 2014-Jul-30 17:21 UTC.
Position N 22°16' E 113°37'.

Length 21 m.

Type: Fishing. MMSI: 412478675.

Date/timePositionNaut miles runAvg speedWind from/ knotsBaromVisibWave heightAir tempDewpointWater temp
2014-Jul-25 15:18N 22°16' E 113°37'7 9.6
2014-Jul-25 14:33N 22°12' E 113°43'7 0.5
2014-Jul-25 01:26N 22°08' E 113°48'14 0.3
2014-Jul-23 01:05N 22°17' E 113°37'5 8.9
2014-Jul-23 00:33N 22°14' E 113°40'6 0.2
2014-Jul-21 17:23N 22°17' E 113°35'7 8.5
2014-Jul-21 16:33N 22°13' E 113°41'12 9.6
2014-Jul-21 15:18N 22°06' E 113°51'5 0.5
2014-Jul-21 04:33N 22°09' E 113°46'7 2.1
2014-Jul-21 01:24N 22°13' E 113°41'8 8.8
2014-Jul-21 00:33N 22°09' E 113°48'1 0.0
2014-Jul-19 19:33N 22°08' E 113°49'1 0.3
2014-Jul-19 16:32N 22°08' E 113°49'1 0.9
2014-Jul-19 15:29N 22°08' E 113°49'7 7.7
2014-Jul-19 14:33N 22°09' E 113°41'8 8.2
2014-Jul-19 13:32N 22°11' E 113°33'0 0.0
2014-Jul-17 19:32N 22°11' E 113°33'2 1.7
2014-Jul-17 18:19N 22°12' E 113°35'3 2.6
2014-Jul-17 17:19N 22°13' E 113°37'2 0.5
2014-Jul-17 14:19N 22°14' E 113°39'5 6.0
2014-Jul-17 13:33N 22°17' E 113°35'0 0.0
2014-Jul-16 09:05N 22°17' E 113°35'4 6.6
2014-Jul-16 08:31N 22°15' E 113°38'8 8.2
2014-Jul-16 07:33N 22°10' E 113°45'6 2.4
2014-Jul-16 05:09N 22°07' E 113°50'610.0
2014-Jul-16 04:33N 22°11' E 113°45'  
Track history (hours):
 
Tides and Currents Weather Stations Pressure Air Temp Water Temp Dewpoint Dewpoint Depression Visibility Wind Speed Wind Dir Waves Ship Positions

Yue Zhu Hai 4038

Last reported at 2014-Jul-25 15:18 UTC. Time now 2014-Jul-30 17:21 UTC.
Position N 22°16' E 113°37'.

Length 21 m.

Type: Fishing. MMSI: 412478675.

Date/timePositionNaut miles runAvg speedWind from/ knotsBaromVisibWave heightAir tempDewpointWater temp
2014-Jul-25 15:18N 22°16' E 113°37'7 9.6
2014-Jul-25 14:33N 22°12' E 113°43'7 0.5
2014-Jul-25 01:26N 22°08' E 113°48'14 0.3
2014-Jul-23 01:05N 22°17' E 113°37'5 8.9
2014-Jul-23 00:33N 22°14' E 113°40'6 0.2
2014-Jul-21 17:23N 22°17' E 113°35'7 8.5
2014-Jul-21 16:33N 22°13' E 113°41'12 9.6
2014-Jul-21 15:18N 22°06' E 113°51'5 0.5
2014-Jul-21 04:33N 22°09' E 113°46'7 2.1
2014-Jul-21 01:24N 22°13' E 113°41'8 8.8
2014-Jul-21 00:33N 22°09' E 113°48'1 0.0
2014-Jul-19 19:33N 22°08' E 113°49'1 0.3
2014-Jul-19 16:32N 22°08' E 113°49'1 0.9
2014-Jul-19 15:29N 22°08' E 113°49'7 7.7
2014-Jul-19 14:33N 22°09' E 113°41'8 8.2
2014-Jul-19 13:32N 22°11' E 113°33'0 0.0
2014-Jul-17 19:32N 22°11' E 113°33'2 1.7
2014-Jul-17 18:19N 22°12' E 113°35'3 2.6
2014-Jul-17 17:19N 22°13' E 113°37'2 0.5
2014-Jul-17 14:19N 22°14' E 113°39'5 6.0
2014-Jul-17 13:33N 22°17' E 113°35'0 0.0
2014-Jul-16 09:05N 22°17' E 113°35'4 6.6
2014-Jul-16 08:31N 22°15' E 113°38'8 8.2
2014-Jul-16 07:33N 22°10' E 113°45'6 2.4
2014-Jul-16 05:09N 22°07' E 113°50'610.0
2014-Jul-16 04:33N 22°11' E 113°45'  

Dump ship's entire track history